Time;durP1;ratioP1;P1;durP2;ratioP2;P2;SDS_P1;SDS_P2;PMS_P1;PMS_P2;Temp;Humidity;BMP_temperature;BMP_pressure;BME280_temperature;BME280_humidity;BME280_pressure;Samples;Min_cycle;Max_cycle;Signal;HPM_P1;HPM_P2
2022/05/28 00:00:53;;;;;;;;;;;;;;;-140.72;100.00;52536.97;4989513;28;19918;-68
2022/05/28 00:03:20;;;;;;;;;;;;;;;-140.72;100.00;52561.31;4986297;28;19918;-69
2022/05/28 00:05:45;;;;;;;;;;;;;;;-140.72;100.00;52545.06;4975088;28;19981;-68
2022/05/28 00:08:10;;;;;;;;;;;;;;;-140.72;100.00;52549.13;4992400;28;20288;-69
2022/05/28 00:10:36;;;;;;;;;;;;;;;-140.72;100.00;52524.78;4987598;28;19918;-68
2022/05/28 00:13:01;;;;;;;;;;;;;;;-140.72;100.00;52563.34;4979324;28;19918;-69
2022/05/28 00:15:27;;;;;;;;;;;;;;;-140.72;100.00;52532.91;4986346;28;19918;-68
2022/05/28 00:17:52;;;;;;;;;;;;;;;-140.72;100.00;52536.97;4981667;28;19918;-68
2022/05/28 00:20:18;;;;;;;;;;;;;;;-140.72;100.00;52553.19;4984785;28;20012;-68
2022/05/28 00:22:43;;;;;;;;;;;;;;;-140.72;100.00;52591.75;4993124;28;19917;-68
2022/05/28 00:25:11;;;;;;;;;;;;;;;-140.72;100.00;52577.53;4960954;28;20400;-68
2022/05/28 00:27:36;;;;;;;;;;;;;;;-140.72;100.00;52603.94;4977131;28;19919;-68
2022/05/28 00:30:02;;;;;;;;;;;;;;;-140.72;100.00;52541.03;4977347;28;19918;-67
2022/05/28 00:32:27;;;;;;;;;;;;;;;-140.72;100.00;52587.69;4967478;28;19918;-68
2022/05/28 00:34:53;;;;;;;;;;;;;;;-140.72;100.00;52555.22;4963931;28;20010;-68
2022/05/28 00:37:18;;;;;;;;;;;;;;;-140.72;100.00;52524.78;4990434;28;19976;-68
2022/05/28 00:39:43;;;;;;;;;;;;;;;-140.72;100.00;52518.69;4984008;28;20067;-68
2022/05/28 00:42:08;;;;;;;;;;;;;;;-140.72;100.00;52559.28;4986777;28;19918;-68
2022/05/28 00:44:34;;;;;;;;;;;;;;;-140.72;100.00;52541.03;4970347;28;19918;-68
2022/05/28 00:46:59;;;;;;;;;;;;;;;-140.72;100.00;52528.84;4985365;28;19952;-70
2022/05/28 00:49:28;;;;;;;;;;;;;;;-140.72;100.00;52597.84;4987849;28;19917;-68
2022/05/28 00:51:56;;;;;;;;;;;;;;;-140.72;100.00;52569.44;4967274;28;19925;-68
2022/05/28 00:54:21;;;;;;;;;;;;;;;-140.72;100.00;52601.91;4976849;28;19930;-68
2022/05/28 00:56:47;;;;;;;;;;;;;;;-140.72;100.00;52565.38;4984780;28;20360;-68
2022/05/28 00:59:13;;;;;;;;;;;;;;;-140.72;100.00;52575.50;4982877;28;19922;-68
2022/05/28 01:01:41;;;;;;;;;;;;;;;-140.72;100.00;52571.47;4978569;28;20301;-68
2022/05/28 01:04:09;;;;;;;;;;;;;;;-140.72;100.00;52551.16;4989332;28;19918;-68
2022/05/28 01:06:40;;;;;;;;;;;;;;;-140.72;100.00;52541.03;4986243;28;19918;-68
2022/05/28 01:09:05;;;;;;;;;;;;;;;-140.72;100.00;52593.78;4977000;28;19918;-68
2022/05/28 01:11:35;;;;;;;;;;;;;;;-140.72;100.00;52612.03;4983974;28;20369;-68
2022/05/28 01:14:12;;;;;;;;;;;;;;;-140.72;100.00;52520.72;4984321;28;19918;-68
2022/05/28 01:16:48;;;;;;;;;;;;;;;-140.72;100.00;52591.75;4968357;28;19918;-68
2022/05/28 01:19:24;;;;;;;;;;;;;;;-140.72;100.00;52597.84;4977568;28;19985;-68
2022/05/28 01:21:57;;;;;;;;;;;;;;;-140.72;100.00;52591.75;4982526;28;19918;-68
2022/05/28 01:24:41;;;;;;;;;;;;;;;-140.72;100.00;52549.13;4977812;28;19919;-68
2022/05/28 01:27:09;;;;;;;;;;;;;;;-140.72;100.00;52561.31;4982268;28;19919;-68
2022/05/28 01:29:37;;;;;;;;;;;;;;;-140.72;100.00;52610.00;4982746;28;19925;-69
2022/05/28 01:32:03;;;;;;;;;;;;;;;-140.72;100.00;52563.34;4969072;28;20392;-68
2022/05/28 01:34:30;;;;;;;;;;;;;;;-140.72;100.00;52553.19;4984152;28;19918;-68
2022/05/28 01:36:56;;;;;;;;;;;;;;;-140.72;100.00;52553.19;4981441;28;19929;-67
2022/05/28 01:39:21;;;;;;;;;;;;;;;-140.72;100.00;52551.16;4944925;28;19922;-67
2022/05/28 01:41:48;;;;;;;;;;;;;;;-140.72;100.00;52569.44;4983522;28;19918;-67
2022/05/28 01:44:15;;;;;;;;;;;;;;;-140.72;100.00;52585.66;4976546;28;19918;-68
2022/05/28 01:46:43;;;;;;;;;;;;;;;-140.72;100.00;52581.59;4966945;28;19934;-68
2022/05/28 01:49:11;;;;;;;;;;;;;;;-140.72;100.00;52557.25;4975278;28;20025;-68
2022/05/28 01:51:38;;;;;;;;;;;;;;;-140.72;100.00;52569.44;4951323;28;19919;-69
2022/05/28 01:54:07;;;;;;;;;;;;;;;-140.72;100.00;52593.78;4969586;28;19925;-68
2022/05/28 01:56:35;;;;;;;;;;;;;;;-140.72;100.00;52610.00;4970953;28;19926;-69
2022/05/28 01:59:00;;;;;;;;;;;;;;;-140.72;100.00;52630.31;4961290;28;20281;-68
2022/05/28 02:01:26;;;;;;;;;;;;;;;-140.72;100.00;52589.72;4948332;28;19918;-68
2022/05/28 02:03:54;;;;;;;;;;;;;;;-140.72;100.00;52565.38;4981938;28;19930;-68
2022/05/28 02:06:19;;;;;;;;;;;;;;;-140.72;100.00;52585.66;4961878;28;19965;-68
2022/05/28 02:08:46;;;;;;;;;;;;;;;-140.72;100.00;52595.81;4971100;28;20433;-68
2022/05/28 02:11:13;;;;;;;;;;;;;;;-140.72;100.00;52573.50;4976557;28;19918;-68
2022/05/28 02:13:57;;;;;;;;;;;;;;;-140.72;100.00;52563.34;4979297;28;19985;-68
2022/05/28 02:16:29;;;;;;;;;;;;;;;-140.72;100.00;52593.78;4979440;28;19924;-68
2022/05/28 02:19:00;;;;;;;;;;;;;;;-140.72;100.00;52601.91;4966913;28;19918;-69
2022/05/28 02:21:28;;;;;;;;;;;;;;;-140.72;100.00;52614.06;4962266;28;19949;-68
2022/05/28 02:24:00;;;;;;;;;;;;;;;-140.72;100.00;52541.03;4980968;28;19920;-68
2022/05/28 02:26:29;;;;;;;;;;;;;;;-140.72;100.00;52557.25;4963587;28;19917;-68
2022/05/28 02:28:54;;;;;;;;;;;;;;;-140.72;100.00;52601.91;4974522;28;19918;-68
2022/05/28 02:31:24;;;;;;;;;;;;;;;-140.72;100.00;52573.50;4971853;28;20302;-68
2022/05/28 02:33:52;;;;;;;;;;;;;;;-140.72;100.00;52591.75;4971379;28;19928;-68
2022/05/28 02:36:17;;;;;;;;;;;;;;;-140.72;100.00;52593.78;4959175;28;19953;-68
2022/05/28 02:38:43;;;;;;;;;;;;;;;-140.72;100.00;52603.94;4981599;28;20370;-69
2022/05/28 02:41:14;;;;;;;;;;;;;;;-140.72;100.00;52575.50;4979945;28;19918;-70
2022/05/28 02:43:39;;;;;;;;;;;;;;;-140.72;100.00;52612.03;4977414;28;19998;-68
2022/05/28 02:46:06;;;;;;;;;;;;;;;-140.72;100.00;52569.44;4987996;28;19994;-69
2022/05/28 02:48:31;;;;;;;;;;;;;;;-140.72;100.00;52583.63;4983160;28;19960;-69
2022/05/28 02:51:07;;;;;;;;;;;;;;;-140.72;100.00;52547.09;4972324;28;20027;-67
2022/05/28 02:53:32;;;;;;;;;;;;;;;-140.72;100.00;52569.44;4967046;28;19918;-69
2022/05/28 02:55:58;;;;;;;;;;;;;;;-140.72;100.00;52561.31;4987706;28;20001;-69
2022/05/28 02:58:23;;;;;;;;;;;;;;;-140.72;100.00;52595.81;4962101;28;20000;-68
2022/05/28 03:00:48;;;;;;;;;;;;;;;-140.72;100.00;52565.38;4970360;28;20079;-68
2022/05/28 03:03:19;;;;;;;;;;;;;;;-140.72;100.00;52601.91;4977326;28;19926;-69
2022/05/28 03:05:44;;;;;;;;;;;;;;;-140.72;100.00;52610.00;4981587;28;19917;-69
2022/05/28 03:08:09;;;;;;;;;;;;;;;-140.72;100.00;52593.78;4975548;28;19928;-69
2022/05/28 03:10:34;;;;;;;;;;;;;;;-140.72;100.00;52581.59;4971576;28;20014;-69
2022/05/28 03:13:00;;;;;;;;;;;;;;;-140.72;100.00;52591.75;4986823;28;20294;-69
2022/05/28 03:15:25;;;;;;;;;;;;;;;-140.72;100.00;52593.78;4976734;28;20357;-69
2022/05/28 03:17:50;;;;;;;;;;;;;;;-140.72;100.00;52581.59;4957717;28;19930;-69
2022/05/28 03:20:15;;;;;;;;;;;;;;;-140.72;100.00;52565.38;4964196;28;19990;-68
2022/05/28 03:22:40;;;;;;;;;;;;;;;-140.72;100.00;52583.63;4965404;28;19972;-67
2022/05/28 03:25:06;;;;;;;;;;;;;;;-140.72;100.00;52599.88;4956747;28;19918;-68
2022/05/28 03:27:31;;;;;;;;;;;;;;;-140.72;100.00;52614.06;4979062;28;20354;-68
2022/05/28 03:29:56;;;;;;;;;;;;;;;-140.72;100.00;52605.94;4971581;28;20293;-68
2022/05/28 03:32:21;;;;;;;;;;;;;;;-140.72;100.00;52569.44;4967310;28;20389;-68
2022/05/28 03:34:47;;;;;;;;;;;;;;;-140.72;100.00;52571.47;4960895;28;20057;-67
2022/05/28 03:37:12;;;;;;;;;;;;;;;-140.72;100.00;52605.94;4984256;28;19922;-68
2022/05/28 03:39:37;;;;;;;;;;;;;;;-140.72;100.00;52553.19;4982015;28;19981;-67
2022/05/28 03:42:02;;;;;;;;;;;;;;;-140.72;100.00;52599.88;4973654;28;19918;-68
2022/05/28 03:44:28;;;;;;;;;;;;;;;-140.72;100.00;52595.81;4981105;28;19926;-68
2022/05/28 03:46:53;;;;;;;;;;;;;;;-140.72;100.00;52599.88;4976577;28;19969;-68
2022/05/28 03:49:29;;;;;;;;;;;;;;;-140.72;100.00;52573.50;4980627;28;20342;-67
2022/05/28 03:51:55;;;;;;;;;;;;;;;-140.72;100.00;52620.16;4975372;28;19918;-70
2022/05/28 03:54:20;;;;;;;;;;;;;;;-140.72;100.00;52620.16;4982281;28;19997;-68
2022/05/28 03:56:46;;;;;;;;;;;;;;;-140.72;100.00;52614.06;4989142;28;19918;-67
2022/05/28 03:59:12;;;;;;;;;;;;;;;-140.72;100.00;52593.78;4972138;28;19922;-68
2022/05/28 04:01:37;;;;;;;;;;;;;;;-140.72;100.00;52605.94;4983585;28;19995;-68
2022/05/28 04:04:03;;;;;;;;;;;;;;;-140.72;100.00;52616.09;4981612;28;19917;-68
2022/05/28 04:06:28;;;;;;;;;;;;;;;-140.72;100.00;52573.50;4991951;28;19925;-68
2022/05/28 04:08:53;;;;;;;;;;;;;;;-140.72;100.00;52557.25;4982395;28;19925;-71
2022/05/28 04:11:19;;;;;;;;;;;;;;;-140.72;100.00;52593.78;4995096;28;19933;-69
2022/05/28 04:13:45;;;;;;;;;;;;;;;-140.72;100.00;52636.38;4987249;28;19925;-68
2022/05/28 04:16:12;;;;;;;;;;;;;;;-140.72;100.00;52571.47;4982555;28;20396;-69
2022/05/28 04:18:37;;;;;;;;;;;;;;;-140.72;100.00;52595.81;4960959;28;19918;-68
2022/05/28 04:21:02;;;;;;;;;;;;;;;-140.72;100.00;52561.31;4962047;28;19918;-68
2022/05/28 04:23:28;;;;;;;;;;;;;;;-140.72;100.00;52587.69;4972445;28;20429;-68
2022/05/28 04:25:53;;;;;;;;;;;;;;;-140.72;100.00;52585.66;4972543;28;19936;-68
2022/05/28 04:28:18;;;;;;;;;;;;;;;-140.72;100.00;52593.78;4968653;28;19927;-68
2022/05/28 04:30:44;;;;;;;;;;;;;;;-140.72;100.00;52612.03;4975877;28;19968;-68
2022/05/28 04:33:09;;;;;;;;;;;;;;;-140.72;100.00;52573.50;4985011;28;19953;-68
2022/05/28 04:35:34;;;;;;;;;;;;;;;-140.72;100.00;52526.81;4983282;28;19949;-71
2022/05/28 04:37:59;;;;;;;;;;;;;;;-140.72;100.00;52589.72;4970643;28;20029;-69
2022/05/28 04:40:24;;;;;;;;;;;;;;;-140.72;100.00;52597.84;4974796;28;19922;-69
2022/05/28 04:42:50;;;;;;;;;;;;;;;-140.72;100.00;52599.88;4966603;28;19973;-67
2022/05/28 04:45:15;;;;;;;;;;;;;;;-140.72;100.00;52561.31;4979681;28;20408;-69
2022/05/28 04:47:40;;;;;;;;;;;;;;;-140.72;100.00;52603.94;4986407;28;19992;-68
2022/05/28 04:50:06;;;;;;;;;;;;;;;-140.72;100.00;52573.50;4979282;28;19976;-69
2022/05/28 04:52:31;;;;;;;;;;;;;;;-140.72;100.00;52555.22;4972904;28;19922;-67
2022/05/28 04:54:56;;;;;;;;;;;;;;;-140.72;100.00;52589.72;4970339;28;19918;-68
2022/05/28 04:57:21;;;;;;;;;;;;;;;-140.72;100.00;52585.66;4972119;28;19922;-68
2022/05/28 04:59:46;;;;;;;;;;;;;;;-140.72;100.00;52553.19;4966249;28;19926;-68
2022/05/28 05:02:12;;;;;;;;;;;;;;;-140.72;100.00;52593.78;4975656;28;19926;-68
2022/05/28 05:04:37;;;;;;;;;;;;;;;-140.72;100.00;52553.19;4974305;28;19929;-68
2022/05/28 05:07:02;;;;;;;;;;;;;;;-140.72;100.00;52585.66;4962836;28;19950;-68
2022/05/28 05:09:28;;;;;;;;;;;;;;;-140.72;100.00;52553.19;4971820;28;20465;-68
2022/05/28 05:11:53;;;;;;;;;;;;;;;-140.72;100.00;52595.81;4971430;28;20289;-68
2022/05/28 05:14:18;;;;;;;;;;;;;;;-140.72;100.00;52599.88;4965120;28;19922;-68
2022/05/28 05:16:43;;;;;;;;;;;;;;;-140.72;100.00;52583.63;4972557;28;19926;-68
2022/05/28 05:19:09;;;;;;;;;;;;;;;-140.72;100.00;52561.31;4965645;28;19919;-69
2022/05/28 05:21:34;;;;;;;;;;;;;;;-140.72;100.00;52557.25;4957729;28;19949;-67
2022/05/28 05:24:00;;;;;;;;;;;;;;;-140.72;100.00;52583.63;4973855;28;19926;-67
2022/05/28 05:26:25;;;;;;;;;;;;;;;-140.72;100.00;52557.25;4965995;28;19921;-68
2022/05/28 05:28:50;;;;;;;;;;;;;;;-140.72;100.00;52534.94;4969904;28;20346;-68
2022/05/28 05:31:16;;;;;;;;;;;;;;;-140.72;100.00;52585.66;4976240;28;19922;-68
2022/05/28 05:33:41;;;;;;;;;;;;;;;-140.72;100.00;52591.75;4985489;28;20349;-70
2022/05/28 05:36:06;;;;;;;;;;;;;;;-140.72;100.00;52559.28;4973078;28;20013;-70
2022/05/28 05:38:32;;;;;;;;;;;;;;;-140.72;100.00;52547.09;4975827;28;19930;-69
2022/05/28 05:40:57;;;;;;;;;;;;;;;-140.72;100.00;52559.28;4980549;28;19918;-68
2022/05/28 05:43:22;;;;;;;;;;;;;;;-140.72;100.00;52559.28;4979534;28;19917;-69
2022/05/28 05:45:57;;;;;;;;;;;;;;;-140.72;100.00;52549.13;4976172;28;20030;-69
2022/05/28 05:48:23;;;;;;;;;;;;;;;-140.72;100.00;52553.19;4945652;28;20295;-69
2022/05/28 05:50:49;;;;;;;;;;;;;;;-140.72;100.00;52553.19;4973105;28;20012;-68
2022/05/28 05:53:15;;;;;;;;;;;;;;;-140.72;100.00;52569.44;4966696;28;19922;-69
2022/05/28 05:55:40;;;;;;;;;;;;;;;-140.72;100.00;52581.59;4965445;28;19922;-68
2022/05/28 05:58:05;;;;;;;;;;;;;;;-140.72;100.00;52569.44;4971014;28;19918;-68
2022/05/28 06:00:30;;;;;;;;;;;;;;;-140.72;100.00;52547.09;4975271;28;19918;-69
2022/05/28 06:02:56;;;;;;;;;;;;;;;-140.72;100.00;52518.69;4957647;28;20345;-68
2022/05/28 06:05:21;;;;;;;;;;;;;;;-140.72;100.00;52524.78;4963272;28;19918;-68
2022/05/28 06:07:46;;;;;;;;;;;;;;;-140.72;100.00;52520.72;4963950;28;19922;-68
2022/05/28 06:10:12;;;;;;;;;;;;;;;-140.72;100.00;52559.28;4971457;28;20413;-70
2022/05/28 06:12:37;;;;;;;;;;;;;;;-140.72;100.00;52536.97;4962359;28;20296;-69
2022/05/28 06:15:03;;;;;;;;;;;;;;;-140.72;100.00;52518.69;4976804;28;20369;-70
2022/05/28 06:17:28;;;;;;;;;;;;;;;-140.72;100.00;52543.03;4972703;28;19918;-69
2022/05/28 06:19:53;;;;;;;;;;;;;;;-140.72;100.00;52512.59;4968676;28;19927;-78
2022/05/28 06:22:18;;;;;;;;;;;;;;;-140.72;100.00;52545.06;4991935;28;19933;-71
2022/05/28 06:24:44;;;;;;;;;;;;;;;-140.72;100.00;52545.06;4979968;28;19918;-71
2022/05/28 06:27:09;;;;;;;;;;;;;;;-140.72;100.00;52530.88;4998283;28;20117;-73
2022/05/28 06:29:34;;;;;;;;;;;;;;;-140.72;100.00;52510.59;4994658;28;19922;-72
2022/05/28 06:31:59;;;;;;;;;;;;;;;-140.72;100.00;52526.81;4980209;28;19922;-73
2022/05/28 06:34:24;;;;;;;;;;;;;;;-140.72;100.00;52520.72;4990457;28;19918;-71
2022/05/28 06:36:50;;;;;;;;;;;;;;;-140.72;100.00;52500.44;4982388;28;19922;-69
2022/05/28 06:39:15;;;;;;;;;;;;;;;-140.72;100.00;52494.34;4980865;28;19954;-69
2022/05/28 06:41:40;;;;;;;;;;;;;;;-140.72;100.00;52480.16;4983068;28;19988;-70
2022/05/28 06:44:05;;;;;;;;;;;;;;;-140.72;100.00;52461.88;4986634;28;19941;-70
2022/05/28 06:46:30;;;;;;;;;;;;;;;-140.72;100.00;52486.22;4986683;28;19922;-69
2022/05/28 06:48:56;;;;;;;;;;;;;;;-140.72;100.00;52457.81;4985314;28;19922;-70
2022/05/28 06:51:21;;;;;;;;;;;;;;;-140.72;100.00;52474.06;4987060;28;19917;-70
2022/05/28 06:53:48;;;;;;;;;;;;;;;-140.72;100.00;52463.91;4984100;28;19957;-69
2022/05/28 06:56:14;;;;;;;;;;;;;;;-140.72;100.00;52512.59;4974868;28;19925;-68
2022/05/28 06:58:39;;;;;;;;;;;;;;;-140.72;100.00;52467.97;4970433;28;19918;-68
2022/05/28 07:01:07;;;;;;;;;;;;;;;-140.72;100.00;52488.25;4963457;28;19961;-68
2022/05/28 07:03:32;;;;;;;;;;;;;;;-140.72;100.00;52526.81;4947471;28;21328;-68
2022/05/28 07:05:58;;;;;;;;;;;;;;;-140.72;100.00;52506.53;4969633;28;20036;-67
2022/05/28 07:08:23;;;;;;;;;;;;;;;-140.72;100.00;52492.31;4969169;28;19972;-68
2022/05/28 07:10:56;;;;;;;;;;;;;;;-140.72;100.00;52502.47;4982748;28;19926;-68
2022/05/28 07:13:22;;;;;;;;;;;;;;;-140.72;100.00;52480.16;4965826;28;19921;-71
2022/05/28 07:15:48;;;;;;;;;;;;;;;-140.72;100.00;52439.56;4978020;28;19926;-69
2022/05/28 07:18:13;;;;;;;;;;;;;;;-140.72;100.00;52467.97;4980225;28;19931;-69
2022/05/28 07:20:39;;;;;;;;;;;;;;;-140.72;100.00;52506.53;4977381;28;19929;-70
2022/05/28 07:23:24;;;;;;;;;;;;;;;-140.72;100.00;52470.00;4974221;28;19993;-68
2022/05/28 07:25:49;;;;;;;;;;;;;;;-140.72;100.00;52461.88;4967914;28;19930;-71
2022/05/28 07:28:33;;;;;;;;;;;;;;;-140.72;100.00;52522.75;4961195;28;20331;-69
2022/05/28 07:31:12;;;;;;;;;;;;;;;-140.72;100.00;52443.63;4990486;28;19919;-71
2022/05/28 07:33:39;;;;;;;;;;;;;;;-140.72;100.00;52451.72;4988293;28;19922;-70
2022/05/28 07:36:06;;;;;;;;;;;;;;;-140.72;100.00;52443.63;4993811;28;19922;-68
2022/05/28 07:38:32;;;;;;;;;;;;;;;-140.72;100.00;52490.28;4980789;28;19990;-67
2022/05/28 07:41:02;;;;;;;;;;;;;;;-140.72;100.00;52490.28;4984246;28;20246;-69
2022/05/28 07:43:27;;;;;;;;;;;;;;;-140.72;100.00;52465.94;4981601;28;19926;-67
2022/05/28 07:45:52;;;;;;;;;;;;;;;-140.72;100.00;52482.16;4986570;28;19972;-68
2022/05/28 07:48:18;;;;;;;;;;;;;;;-140.72;100.00;52382.75;4982801;28;19949;-68
2022/05/28 07:50:43;;;;;;;;;;;;;;;-140.72;100.00;52429.41;4988461;28;19989;-68
2022/05/28 07:53:08;;;;;;;;;;;;;;;-140.72;100.00;52384.78;4983512;28;19929;-70
2022/05/28 07:55:34;;;;;;;;;;;;;;;-140.72;100.00;52429.41;4984554;28;20016;-68
2022/05/28 07:58:03;;;;;;;;;;;;;;;-140.72;100.00;52486.22;4981532;28;20162;-68
2022/05/28 08:00:29;;;;;;;;;;;;;;;-140.72;100.00;52474.06;4986862;28;20013;-68
2022/05/28 08:02:54;;;;;;;;;;;;;;;-140.72;100.00;52439.56;4981234;28;20021;-70
2022/05/28 08:05:19;;;;;;;;;;;;;;;-140.72;100.00;52439.56;4980244;28;19944;-68
2022/05/28 08:07:45;;;;;;;;;;;;;;;-140.72;100.00;52451.72;4985659;28;19941;-68
2022/05/28 08:10:10;;;;;;;;;;;;;;;-140.72;100.00;52480.16;4989388;28;19922;-67
2022/05/28 08:12:35;;;;;;;;;;;;;;;-140.72;100.00;52465.94;4986109;28;20289;-67
2022/05/28 08:15:00;;;;;;;;;;;;;;;-140.72;100.00;52455.78;4988089;28;19918;-67
2022/05/28 08:17:25;;;;;;;;;;;;;;;-140.72;100.00;52482.16;4986461;28;19918;-69
2022/05/28 08:19:51;;;;;;;;;;;;;;;-140.72;100.00;52494.34;4987807;28;19929;-69
2022/05/28 08:25:00;;;;;;;;;;;;;;;-140.72;100.00;52484.19;4989280;28;19972;-68
2022/05/28 08:27:25;;;;;;;;;;;;;;;-140.72;100.00;52480.16;4977975;28;19918;-68
2022/05/28 08:29:50;;;;;;;;;;;;;;;-140.72;100.00;52482.16;4990866;28;19922;-68
2022/05/28 08:32:18;;;;;;;;;;;;;;;-140.72;100.00;52457.81;4989595;28;19922;-68
2022/05/28 08:34:43;;;;;;;;;;;;;;;-140.72;100.00;52409.13;4978331;28;19922;-68
2022/05/28 08:37:09;;;;;;;;;;;;;;;-140.72;100.00;52423.31;4978543;28;20378;-69
2022/05/28 08:39:34;;;;;;;;;;;;;;;-140.72;100.00;52386.81;4962473;28;19950;-68
2022/05/28 08:41:59;;;;;;;;;;;;;;;-140.72;100.00;52398.97;4979448;28;19922;-68
2022/05/28 08:44:30;;;;;;;;;;;;;;;-140.72;100.00;52364.47;4981524;28;19919;-68
2022/05/28 08:46:57;;;;;;;;;;;;;;;-140.72;100.00;52327.97;4963767;28;20359;-68
2022/05/28 08:49:24;;;;;;;;;;;;;;;-140.72;100.00;52336.06;4985792;28;19924;-68
2022/05/28 08:51:57;;;;;;;;;;;;;;;-140.72;100.00;52344.19;4962106;28;20004;-68
2022/05/28 08:54:38;;;;;;;;;;;;;;;-140.72;100.00;52344.19;4986668;28;19918;-67
2022/05/28 08:57:15;;;;;;;;;;;;;;;-140.72;100.00;52370.56;4987138;28;20036;-68
2022/05/28 08:59:44;;;;;;;;;;;;;;;-140.72;100.00;52423.31;4985686;28;19977;-67
2022/05/28 09:02:16;;;;;;;;;;;;;;;-140.72;100.00;52423.31;4984529;28;20011;-67
2022/05/28 09:04:42;;;;;;;;;;;;;;;-140.72;100.00;52401.00;4987356;28;19922;-67
2022/05/28 09:07:10;;;;;;;;;;;;;;;-140.72;100.00;52425.34;4979836;28;19925;-68
2022/05/28 09:09:40;;;;;;;;;;;;;;;-140.72;100.00;52411.16;4983506;28;20012;-67
2022/05/28 09:12:08;;;;;;;;;;;;;;;-140.72;100.00;52386.81;4989084;28;19917;-67
2022/05/28 09:14:37;;;;;;;;;;;;;;;-140.72;100.00;52419.28;4990059;28;19964;-68
2022/05/28 09:17:06;;;;;;;;;;;;;;;-140.72;100.00;52411.16;4991514;28;19964;-67
2022/05/28 09:19:34;;;;;;;;;;;;;;;-140.72;100.00;52354.34;4969462;28;19961;-70
2022/05/28 09:21:59;;;;;;;;;;;;;;;-140.72;100.00;52279.25;4977752;28;19937;-68
2022/05/28 09:24:26;;;;;;;;;;;;;;;-140.72;100.00;52224.47;4967175;28;19918;-68
2022/05/28 09:26:51;;;;;;;;;;;;;;;-140.72;100.00;52194.03;4980036;28;20451;-68
2022/05/28 09:29:43;;;;;;;;;;;;;;;-140.72;100.00;52301.59;4980681;28;19926;-68
2022/05/28 09:32:27;;;;;;;;;;;;;;;-140.72;100.00;52372.59;4980561;28;19918;-67
2022/05/28 09:35:09;;;;;;;;;;;;;;;-140.72;100.00;52261.00;4989978;28;19986;-68
2022/05/28 09:37:53;;;;;;;;;;;;;;;-140.72;100.00;52208.25;4984676;28;19932;-68
2022/05/28 09:40:18;;;;;;;;;;;;;;;-140.72;100.00;52159.56;4986916;28;19932;-67
2022/05/28 09:42:52;;;;;;;;;;;;;;;-140.72;100.00;52265.06;4982650;28;19918;-67
2022/05/28 09:45:25;;;;;;;;;;;;;;;-140.72;100.00;52285.34;4987502;28;19922;-68
2022/05/28 09:47:52;;;;;;;;;;;;;;;-140.72;100.00;52208.25;4978829;28;19926;-68
2022/05/28 09:50:21;;;;;;;;;;;;;;;-140.72;100.00;52210.28;4972627;28;20029;-67
2022/05/28 09:55:38;;;;;;;;;;;;;;;-140.72;100.00;52121.00;4979886;28;19925;-67
2022/05/28 09:58:05;;;;;;;;;;;;;;;-140.72;100.00;52240.72;4975008;28;20285;-67
2022/05/28 10:00:30;;;;;;;;;;;;;;;-140.72;100.00;52202.16;4978898;28;19980;-67
2022/05/28 10:05:48;;;;;;;;;;;;;;;-140.72;100.00;52090.56;4981155;28;20365;-69
2022/05/28 10:08:14;;;;;;;;;;;;;;;-140.72;100.00;52139.25;4988885;28;19965;-68
2022/05/28 10:10:40;;;;;;;;;;;;;;;-140.72;100.00;52074.34;4979005;28;20326;-68
2022/05/28 10:13:17;;;;;;;;;;;;;;;-140.72;100.00;52039.84;4975107;28;19925;-68
2022/05/28 10:15:46;;;;;;;;;;;;;;;-140.72;100.00;52005.34;4963645;28;19918;-68
2022/05/28 10:18:13;;;;;;;;;;;;;;;-140.72;100.00;52076.34;4983631;28;20338;-67
2022/05/28 10:20:38;;;;;;;;;;;;;;;-140.72;100.00;52054.03;4976659;28;19918;-67
2022/05/28 10:23:13;;;;;;;;;;;;;;;-140.72;100.00;52098.69;4982359;28;19922;-67
2022/05/28 10:25:58;;;;;;;;;;;;;;;-140.72;100.00;52100.72;4979379;28;19925;-67
2022/05/28 10:28:31;;;;;;;;;;;;;;;-140.72;100.00;52210.28;4962455;28;20359;-67
2022/05/28 10:30:57;;;;;;;;;;;;;;;-140.72;100.00;52202.16;4976226;28;19924;-68
2022/05/28 10:33:24;;;;;;;;;;;;;;;-140.72;100.00;52179.84;4983658;28;19922;-68
2022/05/28 10:35:50;;;;;;;;;;;;;;;-140.72;100.00;52127.09;4979043;28;20078;-66
2022/05/28 10:38:19;;;;;;;;;;;;;;;-140.72;100.00;52082.44;4981111;28;19929;-69
2022/05/28 10:40:49;;;;;;;;;;;;;;;-140.72;100.00;52058.09;4966231;28;20249;-67
2022/05/28 10:43:27;;;;;;;;;;;;;;;-140.72;100.00;51983.03;4969783;28;20090;-68
2022/05/28 10:46:00;;;;;;;;;;;;;;;-140.72;100.00;52116.94;4988841;28;20016;-66
2022/05/28 10:48:27;;;;;;;;;;;;;;;-140.72;100.00;52125.06;4984966;28;20012;-68
2022/05/28 10:50:52;;;;;;;;;;;;;;;-140.72;100.00;52153.47;4971454;28;20265;-69
2022/05/28 10:53:24;;;;;;;;;;;;;;;-140.72;100.00;52027.66;4984066;28;19930;-68
2022/05/28 10:56:11;;;;;;;;;;;;;;;-140.72;100.00;51946.50;4973734;28;19921;-68
2022/05/28 10:58:55;;;;;;;;;;;;;;;-140.72;100.00;51968.81;4972492;28;20430;-68
2022/05/28 11:01:20;;;;;;;;;;;;;;;-140.72;100.00;52139.25;4979377;28;19922;-67
2022/05/28 11:04:04;;;;;;;;;;;;;;;-140.72;100.00;52116.94;4980101;28;19926;-67
2022/05/28 11:06:51;;;;;;;;;;;;;;;-140.72;100.00;52029.69;4983005;28;19918;-68
2022/05/28 11:09:35;;;;;;;;;;;;;;;-140.72;100.00;51976.94;4989822;28;19932;-67
2022/05/28 11:12:14;;;;;;;;;;;;;;;-140.72;100.00;51903.91;4959959;28;19932;-69
2022/05/28 11:14:45;;;;;;;;;;;;;;;-140.72;100.00;52074.34;4967947;28;20017;-67
2022/05/28 11:17:20;;;;;;;;;;;;;;;-140.72;100.00;51985.06;4983020;28;19985;-68
2022/05/28 11:20:04;;;;;;;;;;;;;;;-140.72;100.00;51944.47;4968572;28;19985;-68
2022/05/28 11:22:48;;;;;;;;;;;;;;;-140.72;100.00;52080.41;4957404;28;19919;-68
2022/05/28 11:25:36;;;;;;;;;;;;;;;-140.72;100.00;52155.50;4979569;28;19918;-68
2022/05/28 11:28:09;;;;;;;;;;;;;;;-140.72;100.00;52196.06;4947450;28;20293;-68
2022/05/28 11:30:38;;;;;;;;;;;;;;;-140.72;100.00;52114.91;4977776;28;20013;-69
2022/05/28 11:33:31;;;;;;;;;;;;;;;-140.72;100.00;52058.09;4981816;28;19948;-68
2022/05/28 11:36:08;;;;;;;;;;;;;;;-140.72;100.00;52141.28;4978950;28;19918;-69
2022/05/28 11:39:00;;;;;;;;;;;;;;;-140.72;100.00;52200.13;4973992;28;19969;-68
2022/05/28 11:41:31;;;;;;;;;;;;;;;-140.72;100.00;52076.34;4950513;28;20269;-69
2022/05/28 11:44:20;;;;;;;;;;;;;;;-140.72;100.00;52011.44;4972668;28;19973;-69
2022/05/28 11:46:54;;;;;;;;;;;;;;;-140.72;100.00;51956.66;4957230;28;20015;-68
2022/05/28 11:52:35;;;;;;;;;;;;;;;-140.72;100.00;52216.34;4982798;28;19945;-68
2022/05/28 11:55:13;;;;;;;;;;;;;;;-140.72;100.00;52001.28;4981190;28;20017;-68
2022/05/28 11:57:57;;;;;;;;;;;;;;;-140.72;100.00;51964.78;4975217;28;20363;-68
2022/05/28 12:00:24;;;;;;;;;;;;;;;-140.72;100.00;51873.47;4963956;28;19956;-69
2022/05/28 12:03:10;;;;;;;;;;;;;;;-140.72;100.00;51855.22;4978667;28;19926;-69
2022/05/28 12:05:44;;;;;;;;;;;;;;;-140.72;100.00;51824.78;4964622;28;19917;-67
2022/05/28 12:08:18;;;;;;;;;;;;;;;-140.72;100.00;52003.31;4980978;28;19925;-67
2022/05/28 12:10:50;;;;;;;;;;;;;;;-140.72;100.00;51958.69;4981886;28;19918;-69
2022/05/28 12:13:45;;;;;;;;;;;;;;;-140.72;100.00;52084.47;4985342;28;20263;-66
2022/05/28 12:16:12;;;;;;;;;;;;;;;-140.72;100.00;52131.16;4958852;28;19965;-68
2022/05/28 12:18:40;;;;;;;;;;;;;;;-140.72;100.00;52200.13;4973345;28;20616;-68
2022/05/28 12:21:05;;;;;;;;;;;;;;;-140.72;100.00;52078.38;4966717;28;19918;-68
2022/05/28 12:23:38;;;;;;;;;;;;;;;-140.72;100.00;52007.38;4960588;28;20005;-69
2022/05/28 12:29:23;;;;;;;;;;;;;;;-140.72;100.00;51968.81;4984179;28;20042;-68
2022/05/28 12:31:48;;;;;;;;;;;;;;;-140.72;100.00;51999.25;4963696;28;19926;-68
2022/05/28 12:34:20;;;;;;;;;;;;;;;-140.72;100.00;52104.75;4986196;28;19918;-69
2022/05/28 12:36:47;;;;;;;;;;;;;;;-140.72;100.00;52206.22;4985195;28;19976;-68
2022/05/28 12:39:12;;;;;;;;;;;;;;;-140.72;100.00;52155.50;4963920;28;19925;-66